createdAt,value
2018-12-10T00:00:47.316Z,10.40
2018-12-10T00:01:47.406Z,10.90
2018-12-10T00:02:47.502Z,12.30
2018-12-10T00:03:47.587Z,13.10
2018-12-10T00:04:47.673Z,13.20
2018-12-10T00:05:47.762Z,10.90
2018-12-10T00:06:47.853Z,9.30
2018-12-10T00:07:47.943Z,9.20
2018-12-10T00:08:48.033Z,7.90
2018-12-10T00:09:48.122Z,11.70
2018-12-10T00:10:48.210Z,14.00
2018-12-10T00:11:48.300Z,10.50
2018-12-10T00:12:48.390Z,12.40
2018-12-10T00:13:48.480Z,10.40
2018-12-10T00:14:48.570Z,10.70
2018-12-10T00:15:48.656Z,15.00
2018-12-10T00:16:48.742Z,14.40
2018-12-10T00:17:48.831Z,13.20
2018-12-10T00:18:48.920Z,12.40
2018-12-10T00:19:49.004Z,14.20
2018-12-10T00:20:49.095Z,10.20
2018-12-10T00:21:49.179Z,14.50
2018-12-10T00:22:49.263Z,10.00
2018-12-10T00:23:49.347Z,11.00
2018-12-10T00:24:49.445Z,13.80
2018-12-10T00:25:49.526Z,14.20
2018-12-10T00:26:49.616Z,11.20
2018-12-10T00:27:49.704Z,14.00
2018-12-10T00:28:49.809Z,11.70
2018-12-10T00:29:49.883Z,10.90
2018-12-10T00:30:49.968Z,8.50
2018-12-10T00:31:50.054Z,11.00
2018-12-10T00:32:50.139Z,12.90
2018-12-10T00:33:50.234Z,11.70
2018-12-10T00:34:50.318Z,10.60
2018-12-10T00:35:50.405Z,12.00
2018-12-10T00:36:50.494Z,12.10
2018-12-10T00:37:50.581Z,13.60
2018-12-10T00:38:50.671Z,10.50
2018-12-10T00:39:50.769Z,7.60
2018-12-10T00:40:50.853Z,9.50
2018-12-10T00:41:50.939Z,11.30
2018-12-10T00:42:51.049Z,10.50
2018-12-10T00:43:51.117Z,13.00
2018-12-10T00:44:51.202Z,9.80
2018-12-10T00:45:51.283Z,12.90
2018-12-10T00:46:51.365Z,12.30
2018-12-10T00:47:51.465Z,14.40
2018-12-10T00:48:51.546Z,9.20
2018-12-10T00:49:51.638Z,9.40
2018-12-10T00:50:51.721Z,7.90
2018-12-10T00:51:51.812Z,13.40
2018-12-10T00:52:51.896Z,10.60
2018-12-10T00:53:51.978Z,10.00
2018-12-10T00:54:52.067Z,11.40
2018-12-10T00:55:52.158Z,10.10
2018-12-10T00:56:52.252Z,11.30
2018-12-10T00:57:52.337Z,13.00
2018-12-10T00:58:52.430Z,11.70
2018-12-10T00:59:52.519Z,13.90
2018-12-10T01:00:52.609Z,10.90
2018-12-10T01:01:52.698Z,14.00
2018-12-10T01:02:52.787Z,14.20
2018-12-10T01:03:52.885Z,15.40
2018-12-10T01:04:52.951Z,13.10
2018-12-10T01:05:53.048Z,12.70
2018-12-10T01:06:53.147Z,11.20
2018-12-10T01:07:53.237Z,12.50
2018-12-10T01:08:53.318Z,14.90
2018-12-10T01:09:53.409Z,13.90
2018-12-10T01:10:53.498Z,18.90
2018-12-10T01:11:53.591Z,13.10
2018-12-10T01:12:53.675Z,10.70
2018-12-10T01:13:53.757Z,13.50
2018-12-10T01:14:53.833Z,13.20
2018-12-10T01:15:53.914Z,8.20
2018-12-10T01:16:54.010Z,10.10
2018-12-10T01:17:54.103Z,10.20
2018-12-10T01:18:54.186Z,12.50
2018-12-10T01:19:54.269Z,15.10
2018-12-10T01:20:54.372Z,10.10
2018-12-10T01:21:54.466Z,12.70
2018-12-10T01:22:54.554Z,9.40
2018-12-10T01:23:54.640Z,11.70
2018-12-10T01:24:54.736Z,9.10
2018-12-10T01:25:54.822Z,11.30
2018-12-10T01:26:54.918Z,11.80
2018-12-10T01:27:55.004Z,10.70
2018-12-10T01:28:55.092Z,8.90
2018-12-10T01:29:55.178Z,7.60
2018-12-10T01:30:55.259Z,7.20
2018-12-10T01:31:55.333Z,8.50
2018-12-10T01:32:55.442Z,5.80
2018-12-10T01:33:55.535Z,9.50
2018-12-10T01:34:55.627Z,8.30
2018-12-10T01:35:55.700Z,5.50
2018-12-10T01:36:55.788Z,5.90
2018-12-10T01:37:55.877Z,3.90
2018-12-10T01:38:55.964Z,5.80
2018-12-10T01:39:56.161Z,4.80
2018-12-10T01:40:56.141Z,4.90
2018-12-10T01:41:56.217Z,5.10
2018-12-10T01:42:56.309Z,7.00
2018-12-10T01:43:56.401Z,4.50
2018-12-10T01:44:56.491Z,3.50
2018-12-10T01:45:56.572Z,2.70
2018-12-10T01:46:56.662Z,4.20
2018-12-10T01:47:56.750Z,3.60
2018-12-10T01:48:56.836Z,2.80
2018-12-10T01:49:56.926Z,3.10
2018-12-10T01:50:57.015Z,1.90
2018-12-10T01:51:57.101Z,4.20
2018-12-10T01:52:57.191Z,2.50
2018-12-10T01:53:57.308Z,3.40
2018-12-10T01:54:57.378Z,2.40
2018-12-10T01:55:57.470Z,3.40
2018-12-10T01:56:57.576Z,2.80
2018-12-10T01:57:57.659Z,3.80
2018-12-10T01:58:57.731Z,3.20
2018-12-10T01:59:57.826Z,5.10
2018-12-10T02:00:57.907Z,4.60
2018-12-10T02:01:57.994Z,2.00
2018-12-10T02:02:58.189Z,3.70
2018-12-10T02:03:58.165Z,4.40
2018-12-10T02:04:58.252Z,3.70
2018-12-10T02:05:58.341Z,4.80
2018-12-10T02:06:58.433Z,4.40
2018-12-10T02:07:58.516Z,2.70
2018-12-10T02:08:58.626Z,6.20
2018-12-10T02:09:58.695Z,4.60
2018-12-10T02:10:58.779Z,4.90
2018-12-10T02:11:58.869Z,3.20
2018-12-10T02:12:58.951Z,4.40
2018-12-10T02:13:59.059Z,3.40
2018-12-10T02:14:59.152Z,4.10
2018-12-10T02:15:59.210Z,4.00
2018-12-10T02:16:59.304Z,4.80
2018-12-10T02:17:59.386Z,4.10
2018-12-10T02:18:59.485Z,3.90
2018-12-10T02:19:59.554Z,4.30
2018-12-10T02:20:59.641Z,2.40
2018-12-10T02:21:59.738Z,3.30
2018-12-10T02:22:59.821Z,5.00
2018-12-10T02:23:59.902Z,3.60
2018-12-10T02:24:59.985Z,4.60
2018-12-10T02:26:00.093Z,3.30
2018-12-10T02:27:00.176Z,2.50
2018-12-10T02:28:00.262Z,3.30
2018-12-10T02:29:00.354Z,6.20
2018-12-10T02:30:00.440Z,5.20
2018-12-10T02:31:00.531Z,3.80
2018-12-10T02:32:00.619Z,5.20
2018-12-10T02:33:00.711Z,4.50
2018-12-10T02:34:00.793Z,3.80
2018-12-10T02:35:00.893Z,3.90
2018-12-10T02:36:00.979Z,5.10
2018-12-10T02:37:01.075Z,4.40
2018-12-10T02:38:01.158Z,3.80
2018-12-10T02:39:01.248Z,3.30
2018-12-10T02:40:01.335Z,1.70
2018-12-10T02:41:01.421Z,4.20
2018-12-10T02:42:01.492Z,4.60
2018-12-10T02:43:01.578Z,4.70
2018-12-10T02:44:01.664Z,6.20
2018-12-10T02:45:01.755Z,3.50
2018-12-10T02:46:01.840Z,7.10
2018-12-10T02:47:01.924Z,5.60
2018-12-10T02:48:01.995Z,6.80
2018-12-10T02:49:04.820Z,6.30
2018-12-10T02:50:02.152Z,4.10
2018-12-10T02:51:02.245Z,3.20
2018-12-10T02:52:02.319Z,4.10
2018-12-10T02:53:02.425Z,4.60
2018-12-10T02:54:02.490Z,4.70
2018-12-10T02:55:02.597Z,3.00
2018-12-10T02:56:02.684Z,4.30
2018-12-10T02:57:02.769Z,6.40
2018-12-10T02:58:02.875Z,8.50
2018-12-10T02:59:02.938Z,8.00
2018-12-10T03:00:03.034Z,5.00
2018-12-10T03:01:03.126Z,5.70
2018-12-10T03:02:03.310Z,4.40
2018-12-10T03:03:03.291Z,5.60
2018-12-10T03:04:03.438Z,4.20
2018-12-10T03:05:03.467Z,5.10
2018-12-10T03:06:03.545Z,5.50
2018-12-10T03:07:03.625Z,5.80
2018-12-10T03:08:03.715Z,3.80
2018-12-10T03:09:03.785Z,6.40
2018-12-10T03:10:03.882Z,5.10
2018-12-10T03:11:03.974Z,5.40
2018-12-10T03:12:04.039Z,3.70
2018-12-10T03:13:04.190Z,5.20
2018-12-10T03:14:04.201Z,5.30
2018-12-10T03:15:04.275Z,6.60
2018-12-10T03:16:04.368Z,6.50
2018-12-10T03:17:04.438Z,7.70
2018-12-10T03:18:04.526Z,8.10
2018-12-10T03:19:04.612Z,6.60
2018-12-10T03:20:04.709Z,8.20
2018-12-10T03:21:04.789Z,8.20
2018-12-10T03:22:04.873Z,8.40
2018-12-10T03:23:04.947Z,8.20
2018-12-10T03:24:05.032Z,7.00
2018-12-10T03:25:05.105Z,10.40
2018-12-10T03:26:05.185Z,5.30
2018-12-10T03:27:05.291Z,10.70
2018-12-10T03:28:05.378Z,6.80
2018-12-10T03:29:05.437Z,8.30
2018-12-10T03:30:05.526Z,5.70
2018-12-10T03:31:05.596Z,7.20
2018-12-10T03:32:05.679Z,8.10
2018-12-10T03:33:05.741Z,6.70
2018-12-10T03:34:05.832Z,7.90
2018-12-10T03:35:05.916Z,7.80
2018-12-10T03:36:06.004Z,7.50
2018-12-10T03:37:06.068Z,5.30
2018-12-10T03:38:06.127Z,7.50
2018-12-10T03:39:06.207Z,6.80
2018-12-10T03:40:06.294Z,12.60
2018-12-10T03:41:06.363Z,9.60
2018-12-10T03:42:06.440Z,10.70
2018-12-10T03:43:06.516Z,6.70
2018-12-10T03:44:06.584Z,7.00
2018-12-10T03:45:06.676Z,6.70
2018-12-10T03:46:06.773Z,8.30
2018-12-10T03:47:06.841Z,6.50
2018-12-10T03:48:06.936Z,6.00
2018-12-10T03:49:07.004Z,8.50
2018-12-10T03:50:07.094Z,10.90
2018-12-10T03:51:07.180Z,8.40
2018-12-10T03:52:07.267Z,10.20
2018-12-10T03:53:07.357Z,12.50
2018-12-10T03:54:07.440Z,12.80
2018-12-10T03:55:07.529Z,9.80
2018-12-10T03:56:07.602Z,8.50
2018-12-10T03:57:07.694Z,12.80
2018-12-10T03:58:07.801Z,11.40
2018-12-10T03:59:07.864Z,11.40
2018-12-10T04:00:07.949Z,6.80
2018-12-10T04:01:08.033Z,6.70
2018-12-10T04:02:08.107Z,8.30
2018-12-10T04:03:08.203Z,8.70
2018-12-10T04:04:08.298Z,6.00
2018-12-10T04:05:08.395Z,9.00
2018-12-10T04:06:08.468Z,10.50
2018-12-10T04:07:08.562Z,6.70
2018-12-10T04:08:08.643Z,10.40
2018-12-10T04:09:08.740Z,10.60
2018-12-10T04:10:08.821Z,11.00
2018-12-10T04:11:08.894Z,8.70
2018-12-10T04:12:08.983Z,14.10
2018-12-10T04:13:09.063Z,10.40
2018-12-10T04:14:09.133Z,11.70
2018-12-10T04:16:52.277Z,8.00
2018-12-10T04:17:52.372Z,8.40
2018-12-10T04:18:52.447Z,13.10
2018-12-10T04:19:52.537Z,9.70
2018-12-10T04:20:52.636Z,10.80
2018-12-10T04:21:52.707Z,13.30
2018-12-10T04:22:52.796Z,10.20
2018-12-10T04:23:52.886Z,12.10
2018-12-10T04:24:52.972Z,12.00
2018-12-10T04:25:53.064Z,12.40
2018-12-10T04:26:53.148Z,10.10
2018-12-10T04:27:53.238Z,11.80
2018-12-10T04:28:53.325Z,11.90
2018-12-10T04:29:53.416Z,9.60
2018-12-10T04:30:53.499Z,8.70
2018-12-10T04:31:53.588Z,10.20
2018-12-10T04:32:53.678Z,8.90
2018-12-10T04:33:53.766Z,10.30
2018-12-10T04:34:53.856Z,12.20
2018-12-10T04:35:53.948Z,9.00
2018-12-10T04:36:54.033Z,11.30
2018-12-10T04:37:54.123Z,8.50
2018-12-10T04:38:54.213Z,7.80
2018-12-10T04:39:54.302Z,8.70
2018-12-10T04:40:54.391Z,9.00
2018-12-10T04:41:54.480Z,7.70
2018-12-10T04:42:54.570Z,11.90
2018-12-10T04:43:54.656Z,7.50
2018-12-10T04:44:54.745Z,7.50
2018-12-10T04:45:54.840Z,8.80
2018-12-10T04:46:54.926Z,7.50
2018-12-10T04:47:55.017Z,8.00
2018-12-10T04:48:55.099Z,8.70
2018-12-10T04:49:55.194Z,8.40
2018-12-10T04:50:55.281Z,6.20
2018-12-10T04:51:55.370Z,10.70
2018-12-10T04:52:55.458Z,9.00
2018-12-10T04:53:55.557Z,8.70
2018-12-10T04:54:55.643Z,9.20
2018-12-10T04:55:55.732Z,8.90
2018-12-10T04:56:55.821Z,9.00
2018-12-10T04:57:55.915Z,8.50
2018-12-10T04:58:55.999Z,11.10
2018-12-10T04:59:56.092Z,9.30
2018-12-10T05:00:56.176Z,8.40
2018-12-10T05:01:56.263Z,8.20
2018-12-10T05:02:56.352Z,9.30
2018-12-10T05:03:56.442Z,7.40
2018-12-10T05:04:56.532Z,9.00
2018-12-10T05:05:56.621Z,8.60
2018-12-10T05:06:56.705Z,9.40
2018-12-10T05:07:56.788Z,6.70
2018-12-10T05:08:56.879Z,10.80
2018-12-10T05:09:56.966Z,13.10
2018-12-10T05:10:57.059Z,9.20
2018-12-10T05:11:57.148Z,8.30
2018-12-10T05:12:57.224Z,8.80
2018-12-10T05:13:57.310Z,9.10
2018-12-10T05:14:57.392Z,9.30
2018-12-10T05:15:57.479Z,9.50
2018-12-10T05:16:57.566Z,7.90
2018-12-10T05:17:57.654Z,9.00
2018-12-10T05:18:57.734Z,11.60
2018-12-10T05:19:57.830Z,8.90
2018-12-10T05:20:57.919Z,5.50
2018-12-10T05:21:58.005Z,8.00
2018-12-10T05:22:58.093Z,9.60
2018-12-10T05:23:58.185Z,6.00
2018-12-10T05:24:58.270Z,12.90
2018-12-10T05:25:58.357Z,10.60
2018-12-10T05:26:58.446Z,7.50
2018-12-10T05:27:58.537Z,7.40
2018-12-10T05:28:58.621Z,7.20
2018-12-10T05:29:58.709Z,9.20
2018-12-10T05:30:58.819Z,7.10
2018-12-10T05:31:58.905Z,9.00
2018-12-10T05:32:58.992Z,9.00
2018-12-10T05:33:59.084Z,9.50
2018-12-10T05:34:59.173Z,11.60
2018-12-10T05:35:59.293Z,9.50
2018-12-10T05:36:59.383Z,11.50
2018-12-10T05:37:59.465Z,7.90
2018-12-10T05:38:59.555Z,9.90
2018-12-10T05:39:59.643Z,6.80
2018-12-10T05:40:59.735Z,9.70
2018-12-10T05:41:59.821Z,7.60
2018-12-10T05:42:59.908Z,10.50
2018-12-10T05:43:59.994Z,10.20
2018-12-10T05:45:00.085Z,11.70
2018-12-10T05:46:00.171Z,10.30
2018-12-10T05:47:00.258Z,9.90
2018-12-10T05:48:00.345Z,8.10
2018-12-10T05:49:00.435Z,9.80
2018-12-10T05:50:00.523Z,9.90
2018-12-10T05:51:00.609Z,8.50
2018-12-10T05:52:00.697Z,9.10
2018-12-10T05:53:00.785Z,11.00
2018-12-10T05:54:00.871Z,9.20
2018-12-10T05:55:00.952Z,11.10
2018-12-10T05:56:01.036Z,9.80
2018-12-10T05:57:01.118Z,8.40
2018-12-10T05:58:01.219Z,9.60
2018-12-10T05:59:01.299Z,10.20
2018-12-10T06:00:01.419Z,9.30
2018-12-10T06:01:01.508Z,10.30
2018-12-10T06:02:01.594Z,11.90
2018-12-10T06:03:01.686Z,11.40
2018-12-10T06:04:01.773Z,11.50
2018-12-10T06:05:01.861Z,8.10
2018-12-10T06:06:01.963Z,10.50
2018-12-10T06:07:02.033Z,11.00
2018-12-10T06:08:02.125Z,9.50
2018-12-10T06:09:02.209Z,6.60
2018-12-10T06:10:02.296Z,10.60
2018-12-10T06:11:02.381Z,8.50
2018-12-10T06:12:02.462Z,10.60
2018-12-10T06:13:02.555Z,7.50
2018-12-10T06:14:02.647Z,8.20
2018-12-10T06:15:02.730Z,8.40
2018-12-10T06:16:02.815Z,12.00
2018-12-10T06:17:02.914Z,9.60
2018-12-10T06:18:02.989Z,9.40
2018-12-10T06:19:03.089Z,8.00
2018-12-10T06:20:03.179Z,11.10
2018-12-10T06:21:03.320Z,9.00
2018-12-10T06:22:03.359Z,12.10
2018-12-10T06:23:03.449Z,9.70
2018-12-10T06:24:03.540Z,10.80
2018-12-10T06:25:03.629Z,10.70
2018-12-10T06:26:03.716Z,7.80
2018-12-10T06:27:03.806Z,7.60
2018-12-10T06:28:03.895Z,8.90
2018-12-10T06:29:03.982Z,7.10
2018-12-10T06:30:04.074Z,8.80
2018-12-10T06:31:04.161Z,10.10
2018-12-10T06:32:04.248Z,7.10
2018-12-10T06:33:04.338Z,7.10
2018-12-10T06:34:04.426Z,10.40
2018-12-10T06:35:04.511Z,8.90
2018-12-10T06:36:04.629Z,7.50
2018-12-10T06:37:04.719Z,6.80
2018-12-10T06:38:04.803Z,5.00
2018-12-10T06:39:04.897Z,9.60
2018-12-10T06:40:04.975Z,8.50
2018-12-10T06:41:05.063Z,9.40
2018-12-10T06:42:05.149Z,10.20
2018-12-10T06:43:05.238Z,9.40
2018-12-10T06:44:05.335Z,8.80
2018-12-10T06:45:05.424Z,6.60
2018-12-10T06:46:05.510Z,11.80
2018-12-10T06:47:05.607Z,7.00
2018-12-10T06:48:05.692Z,8.70
2018-12-10T06:49:05.775Z,7.10
2018-12-10T06:50:05.864Z,9.90
2018-12-10T06:51:05.954Z,10.20
2018-12-10T06:52:06.043Z,9.20
2018-12-10T06:53:06.132Z,8.20
2018-12-10T06:54:06.223Z,9.50
2018-12-10T06:55:06.311Z,8.50
2018-12-10T06:56:06.515Z,5.60
2018-12-10T06:57:06.487Z,8.50
2018-12-10T06:58:06.583Z,7.00
2018-12-10T06:59:06.670Z,7.20
2018-12-10T07:00:06.757Z,9.10
2018-12-10T07:01:06.845Z,7.60
2018-12-10T07:02:06.938Z,7.40
2018-12-10T07:03:07.025Z,5.60
2018-12-10T07:04:07.113Z,12.30
2018-12-10T07:05:07.201Z,8.70
2018-12-10T07:06:07.292Z,7.40
2018-12-10T07:07:07.378Z,6.80
2018-12-10T07:08:07.467Z,6.20
2018-12-10T07:09:07.560Z,6.40
2018-12-10T07:10:07.649Z,7.50
2018-12-10T07:11:07.731Z,5.80
2018-12-10T07:12:07.819Z,6.80
2018-12-10T07:13:07.906Z,7.20
2018-12-10T07:14:07.996Z,6.90
2018-12-10T07:15:08.086Z,9.50
2018-12-10T07:16:08.176Z,6.00
2018-12-10T07:17:08.262Z,7.90
2018-12-10T07:18:08.351Z,6.30
2018-12-10T07:19:08.441Z,6.70
2018-12-10T07:20:08.529Z,10.80
2018-12-10T07:21:08.621Z,8.40
2018-12-10T07:22:08.713Z,6.70
2018-12-10T07:23:08.822Z,7.30
2018-12-10T07:24:08.907Z,6.60
2018-12-10T07:25:08.997Z,7.10
2018-12-10T07:26:09.085Z,6.00
2018-12-10T07:27:09.177Z,6.20
2018-12-10T07:28:09.261Z,10.60
2018-12-10T07:29:09.351Z,9.30
2018-12-10T07:30:09.441Z,6.70
2018-12-10T07:31:09.530Z,9.20
2018-12-10T07:32:09.619Z,5.80
2018-12-10T07:33:09.707Z,5.00
2018-12-10T07:34:09.841Z,7.00
2018-12-10T07:35:09.889Z,5.50
2018-12-10T07:36:09.973Z,6.00
2018-12-10T07:37:10.063Z,7.00
2018-12-10T07:38:10.153Z,8.40
2018-12-10T07:39:10.238Z,10.50
2018-12-10T07:40:10.338Z,8.20
2018-12-10T07:41:10.418Z,9.90
2018-12-10T07:42:10.508Z,8.00
2018-12-10T07:43:10.599Z,8.00
2018-12-10T07:44:10.680Z,7.60
2018-12-10T07:45:10.767Z,9.80
2018-12-10T07:46:10.855Z,6.70
2018-12-10T07:47:10.947Z,8.90
2018-12-10T07:48:11.035Z,8.70
2018-12-10T07:49:11.124Z,8.00
2018-12-10T07:50:11.211Z,7.70
2018-12-10T07:51:11.301Z,9.50
2018-12-10T07:52:11.390Z,8.20
2018-12-10T07:53:11.480Z,7.90
2018-12-10T07:54:11.573Z,6.80
2018-12-10T07:55:11.660Z,7.90
2018-12-10T07:56:11.754Z,5.60
2018-12-10T07:57:11.851Z,10.10
2018-12-10T07:58:11.937Z,7.40
2018-12-10T07:59:12.026Z,8.10
2018-12-10T08:00:12.114Z,8.10
2018-12-10T08:01:12.270Z,8.10
2018-12-10T08:02:12.289Z,9.00
2018-12-10T08:03:12.439Z,7.80
2018-12-10T08:04:12.465Z,7.90
2018-12-10T08:05:12.696Z,11.10
2018-12-10T08:06:12.645Z,9.40
2018-12-10T08:07:12.724Z,11.50
2018-12-10T08:08:12.810Z,7.30
2018-12-10T08:09:12.896Z,7.90
2018-12-10T08:10:12.984Z,11.00
2018-12-10T08:11:13.074Z,10.30
2018-12-10T08:12:13.161Z,6.40
2018-12-10T08:13:13.246Z,8.20
2018-12-10T08:14:13.343Z,8.00
2018-12-10T08:15:13.433Z,7.40
2018-12-10T08:16:13.522Z,8.60
2018-12-10T08:17:13.608Z,10.10
2018-12-10T08:18:13.696Z,7.60
2018-12-10T08:19:13.786Z,7.90
2018-12-10T08:20:13.874Z,5.40
2018-12-10T08:21:13.965Z,9.60
2018-12-10T08:22:14.055Z,7.60
2018-12-10T08:23:14.143Z,6.20
2018-12-10T08:24:14.230Z,6.80
2018-12-10T08:25:14.323Z,7.10
2018-12-10T08:26:14.416Z,8.20
2018-12-10T08:27:14.508Z,9.70
2018-12-10T08:28:14.585Z,6.80
2018-12-10T08:29:14.673Z,7.30
2018-12-10T08:30:14.763Z,8.50
2018-12-10T08:31:14.849Z,9.40
2018-12-10T08:32:14.940Z,7.60
2018-12-10T08:33:15.024Z,9.90
2018-12-10T08:34:15.109Z,5.60
2018-12-10T08:35:15.200Z,10.50
2018-12-10T08:36:15.286Z,7.20
2018-12-10T08:37:15.374Z,7.50
2018-12-10T08:38:15.462Z,9.80
2018-12-10T08:39:15.636Z,5.00
2018-12-10T08:40:15.696Z,7.60
2018-12-10T08:41:15.724Z,7.90
2018-12-10T08:42:15.818Z,9.30
2018-12-10T08:43:15.906Z,8.90
2018-12-10T08:44:15.995Z,10.40
2018-12-10T08:45:16.084Z,6.90
2018-12-10T08:46:16.285Z,6.80
2018-12-10T08:47:16.482Z,6.10
2018-12-10T08:48:16.349Z,6.30
2018-12-10T08:49:16.437Z,6.40
2018-12-10T08:50:25.196Z,5.70
2018-12-10T08:51:16.802Z,8.40
2018-12-10T08:52:16.756Z,7.20
2018-12-10T08:53:16.825Z,5.60
2018-12-10T08:54:16.942Z,7.60
2018-12-10T08:55:17.030Z,6.80
2018-12-10T08:56:17.119Z,7.40
2018-12-10T08:57:17.333Z,7.70
2018-12-10T08:58:17.289Z,7.50
2018-12-10T08:59:17.379Z,5.60
2018-12-10T09:00:17.465Z,4.70
2018-12-10T09:01:17.555Z,5.40
2018-12-10T09:02:17.643Z,5.20
2018-12-10T09:03:17.729Z,8.30
2018-12-10T09:04:17.826Z,7.70
2018-12-10T09:05:17.913Z,6.20
2018-12-10T09:06:18.004Z,7.80
2018-12-10T09:07:18.098Z,4.80
2018-12-10T09:08:18.183Z,9.10
2018-12-10T09:09:18.270Z,8.10
2018-12-10T09:10:18.358Z,6.10
2018-12-10T09:11:18.449Z,6.10
2018-12-10T09:12:18.539Z,5.00
2018-12-10T09:13:18.660Z,4.80
2018-12-10T09:14:18.751Z,5.20
2018-12-10T09:15:18.838Z,6.70
2018-12-10T09:16:18.927Z,5.40
2018-12-10T09:17:19.016Z,8.60
2018-12-10T09:18:19.105Z,5.80
2018-12-10T09:19:19.192Z,6.70
2018-12-10T09:20:19.282Z,7.70
2018-12-10T09:21:19.371Z,5.20
2018-12-10T09:22:19.448Z,4.80
2018-12-10T09:23:19.535Z,5.70
2018-12-10T09:24:19.625Z,5.10
2018-12-10T09:25:24.493Z,6.10
2018-12-10T09:26:19.803Z,6.50
2018-12-10T09:27:19.891Z,3.90
2018-12-10T09:28:19.979Z,4.20
2018-12-10T09:29:20.070Z,6.00
2018-12-10T09:30:20.160Z,6.40
2018-12-10T09:31:20.251Z,5.50
2018-12-10T09:32:20.342Z,8.00
2018-12-10T09:33:20.431Z,5.00
2018-12-10T09:34:20.542Z,6.40
2018-12-10T09:35:20.630Z,5.40
2018-12-10T09:36:20.715Z,8.80
2018-12-10T09:37:20.808Z,5.70
2018-12-10T09:38:20.895Z,4.70
2018-12-10T09:39:20.983Z,6.60
2018-12-10T09:40:21.072Z,7.20
2018-12-10T09:41:21.159Z,8.40
2018-12-10T09:42:21.251Z,5.00
2018-12-10T09:43:21.342Z,3.80
2018-12-10T09:44:21.428Z,8.70
2018-12-10T09:45:21.517Z,6.70
2018-12-10T09:46:27.532Z,6.00
2018-12-10T09:47:21.690Z,8.00
2018-12-10T09:48:21.783Z,6.20
2018-12-10T09:49:21.874Z,6.50
2018-12-10T09:50:21.962Z,8.30
2018-12-10T09:51:22.050Z,8.10
2018-12-10T09:52:22.139Z,6.90
2018-12-10T09:53:22.214Z,6.20
2018-12-10T09:54:22.313Z,6.30
2018-12-10T09:55:22.404Z,6.90
2018-12-10T09:56:22.492Z,6.60
2018-12-10T09:57:22.582Z,6.30
2018-12-10T09:58:22.669Z,4.70
2018-12-10T09:59:22.788Z,8.00
2018-12-10T10:00:22.964Z,6.40
2018-12-10T10:01:22.944Z,5.80
2018-12-10T10:02:23.028Z,8.50
2018-12-10T10:03:23.140Z,6.60
2018-12-10T10:04:23.232Z,6.40
2018-12-10T10:05:23.319Z,6.30
2018-12-10T10:06:23.408Z,7.90
2018-12-10T10:07:28.349Z,8.70
2018-12-10T10:08:23.586Z,10.20
2018-12-10T10:09:23.675Z,9.60
2018-12-10T10:10:23.767Z,7.70
2018-12-10T10:11:23.854Z,6.90
2018-12-10T10:12:23.949Z,6.90
2018-12-10T10:13:24.038Z,8.70
2018-12-10T10:14:24.125Z,6.00
2018-12-10T10:15:24.216Z,6.10
2018-12-10T10:16:24.301Z,7.40
2018-12-10T10:17:24.393Z,7.70
2018-12-10T10:18:24.483Z,7.90
2018-12-10T10:19:24.573Z,7.90
2018-12-10T10:20:24.662Z,6.30
2018-12-10T10:21:24.751Z,4.70
2018-12-10T10:22:24.841Z,7.20
2018-12-10T10:23:24.929Z,9.10
2018-12-10T10:24:25.031Z,6.10
2018-12-10T10:25:25.114Z,6.70
2018-12-10T10:26:25.236Z,8.00
2018-12-10T10:27:25.324Z,8.20
2018-12-10T10:28:25.452Z,5.60
2018-12-10T10:29:25.505Z,6.70
2018-12-10T10:30:25.592Z,6.60
2018-12-10T10:31:25.682Z,8.40
2018-12-10T10:32:25.811Z,8.70
2018-12-10T10:33:32.340Z,7.50
2018-12-10T10:34:25.949Z,6.60
2018-12-10T10:35:26.036Z,6.60
2018-12-10T10:36:26.127Z,7.20
2018-12-10T10:37:26.218Z,6.60
2018-12-10T10:38:26.307Z,7.50
2018-12-10T10:39:26.396Z,5.90
2018-12-10T10:40:26.483Z,8.90
2018-12-10T10:41:31.294Z,6.70
2018-12-10T10:42:26.665Z,7.10
2018-12-10T10:43:26.757Z,5.30
2018-12-10T10:44:26.847Z,8.80
2018-12-10T10:45:34.460Z,8.60
2018-12-10T10:46:27.027Z,5.40
2018-12-10T10:47:27.116Z,5.40
2018-12-10T10:48:27.205Z,6.10
2018-12-10T10:49:27.295Z,7.70
2018-12-10T10:50:27.383Z,7.70
2018-12-10T10:51:27.470Z,5.10
2018-12-10T10:52:32.999Z,5.70
2018-12-10T10:53:27.652Z,6.10
2018-12-10T10:54:27.742Z,6.90
2018-12-10T10:55:27.832Z,6.80
2018-12-10T10:56:27.922Z,9.50
2018-12-10T10:57:28.012Z,6.80
2018-12-10T10:58:28.103Z,5.60
2018-12-10T10:59:28.198Z,6.90
2018-12-10T11:00:28.283Z,4.60
2018-12-10T11:01:28.376Z,6.00
2018-12-10T11:02:28.464Z,8.00
2018-12-10T11:03:28.555Z,9.00
2018-12-10T11:04:28.648Z,7.90
2018-12-10T11:05:28.737Z,6.80
2018-12-10T11:06:28.825Z,6.60
2018-12-10T11:07:28.912Z,7.00
2018-12-10T11:08:29.006Z,5.30
2018-12-10T11:09:29.096Z,7.20
2018-12-10T11:10:29.190Z,7.80
2018-12-10T11:11:29.279Z,12.60
2018-12-10T11:12:29.370Z,14.50
2018-12-10T11:13:29.460Z,12.10
2018-12-10T11:14:29.557Z,10.10
2018-12-10T11:15:29.757Z,6.00
2018-12-10T11:16:29.724Z,9.30
2018-12-10T11:17:29.815Z,4.90
2018-12-10T11:18:29.905Z,6.80
2018-12-10T11:19:29.994Z,5.80
2018-12-10T11:20:30.085Z,9.00
2018-12-10T11:21:30.175Z,5.30
2018-12-10T11:22:30.264Z,5.90
2018-12-10T11:23:30.351Z,8.50
2018-12-10T11:24:30.444Z,6.60
2018-12-10T11:25:30.532Z,8.60
2018-12-10T11:26:30.621Z,5.30
2018-12-10T11:27:30.714Z,6.00
2018-12-10T11:28:30.801Z,6.40
2018-12-10T11:29:30.893Z,5.90
2018-12-10T11:30:30.984Z,7.70
2018-12-10T11:31:31.073Z,4.90
2018-12-10T11:32:31.165Z,6.80
2018-12-10T11:33:31.254Z,6.50
2018-12-10T11:34:31.344Z,6.70
2018-12-10T11:35:31.432Z,5.10
2018-12-10T11:36:31.523Z,4.70
2018-12-10T11:37:31.616Z,6.30
2018-12-10T11:38:31.706Z,3.80
2018-12-10T11:39:31.796Z,5.40
2018-12-10T11:40:31.887Z,4.50
2018-12-10T11:41:31.971Z,5.60
2018-12-10T11:42:32.064Z,6.60
2018-12-10T11:43:32.155Z,5.60
2018-12-10T11:44:32.245Z,5.90
2018-12-10T11:45:32.334Z,5.90
2018-12-10T11:46:32.426Z,7.50
2018-12-10T11:47:32.516Z,6.20
2018-12-10T11:48:32.606Z,6.10
2018-12-10T11:49:32.704Z,3.80
2018-12-10T11:50:32.785Z,5.30
2018-12-10T11:51:32.874Z,4.20
2018-12-10T11:52:32.966Z,4.60
2018-12-10T11:53:33.056Z,4.30
2018-12-10T11:54:33.143Z,4.90
2018-12-10T11:55:33.234Z,6.00
2018-12-10T11:56:33.414Z,4.70
2018-12-10T11:57:33.416Z,5.90
2018-12-10T11:58:33.523Z,5.90
2018-12-10T11:59:33.595Z,4.20
2018-12-10T12:00:33.696Z,5.00
2018-12-10T12:01:33.783Z,3.90
2018-12-10T12:02:33.874Z,6.30
2018-12-10T12:03:33.966Z,5.80
2018-12-10T12:04:34.052Z,4.20
2018-12-10T12:05:34.143Z,4.00
2018-12-10T12:06:34.232Z,5.50
2018-12-10T12:07:34.322Z,7.00
2018-12-10T12:08:34.413Z,5.00
2018-12-10T12:09:34.507Z,8.30
2018-12-10T12:10:34.593Z,6.80
2018-12-10T12:11:34.688Z,8.10
2018-12-10T12:12:34.778Z,7.30
2018-12-10T12:13:34.869Z,3.90
2018-12-10T12:14:34.957Z,7.50
2018-12-10T12:15:35.048Z,8.20
2018-12-10T12:16:35.137Z,5.40
2018-12-10T12:17:35.239Z,6.20
2018-12-10T12:18:35.331Z,5.00
2018-12-10T12:19:35.418Z,5.20
2018-12-10T12:20:35.522Z,6.10
2018-12-10T12:21:35.626Z,5.90
2018-12-10T12:22:35.721Z,4.50
2018-12-10T12:23:35.808Z,6.40
2018-12-10T12:24:35.901Z,4.00
2018-12-10T12:25:35.990Z,3.50
2018-12-10T12:26:36.079Z,3.60
2018-12-10T12:27:36.169Z,6.70
2018-12-10T12:28:36.260Z,6.20
2018-12-10T12:29:36.352Z,5.20
2018-12-10T12:30:36.442Z,5.20
2018-12-10T12:31:36.531Z,7.80
2018-12-10T12:32:36.622Z,6.20
2018-12-10T12:33:36.713Z,7.70
2018-12-10T12:34:36.809Z,5.00
2018-12-10T12:35:36.894Z,7.10
2018-12-10T12:36:36.987Z,5.80
2018-12-10T12:37:37.080Z,5.50
2018-12-10T12:38:37.167Z,7.00
2018-12-10T12:39:37.258Z,6.50
2018-12-10T12:40:37.349Z,5.10
2018-12-10T12:41:37.450Z,7.80
2018-12-10T12:42:37.536Z,6.40
2018-12-10T12:43:37.619Z,9.70
2018-12-10T12:44:37.707Z,9.50
2018-12-10T12:45:37.797Z,7.20
2018-12-10T12:46:37.890Z,7.40
2018-12-10T12:47:37.981Z,5.00
2018-12-10T12:48:38.075Z,6.90
2018-12-10T12:49:38.163Z,7.00
2018-12-10T12:50:38.253Z,5.30
2018-12-10T12:51:38.342Z,7.40
2018-12-10T12:52:38.434Z,5.10
2018-12-10T12:53:38.528Z,5.90
2018-12-10T12:54:38.613Z,6.40
2018-12-10T12:55:38.720Z,6.60
2018-12-10T12:56:38.812Z,8.40
2018-12-10T12:57:38.902Z,4.60
2018-12-10T12:58:38.990Z,6.00
2018-12-10T12:59:39.094Z,6.90
2018-12-10T13:00:42.045Z,6.90
2018-12-10T13:01:39.254Z,4.40
2018-12-10T13:02:39.340Z,5.70
2018-12-10T13:03:39.431Z,7.30
2018-12-10T13:04:39.524Z,4.50
2018-12-10T13:05:39.618Z,4.90
2018-12-10T13:06:39.697Z,6.30
2018-12-10T13:07:39.787Z,7.70
2018-12-10T13:08:39.871Z,6.90
2018-12-10T13:09:39.957Z,5.00
2018-12-10T13:10:40.049Z,9.60
2018-12-10T13:11:40.144Z,6.00
2018-12-10T13:12:40.232Z,5.20
2018-12-10T13:13:40.325Z,5.20
2018-12-10T13:14:40.423Z,4.60
2018-12-10T13:15:40.500Z,3.60
2018-12-10T13:16:40.589Z,4.50